createdAt,value
2018-05-06T00:02:49.415Z,18.66
2018-05-06T00:05:53.703Z,18.63
2018-05-06T00:08:57.032Z,18.64
2018-05-06T00:12:00.334Z,18.57
2018-05-06T00:15:03.778Z,18.51
2018-05-06T00:18:07.150Z,18.50
2018-05-06T00:21:10.389Z,18.46
2018-05-06T00:24:13.731Z,18.46
2018-05-06T00:27:17.135Z,18.42
2018-05-06T00:30:20.431Z,18.40
2018-05-06T00:33:24.818Z,18.32
2018-05-06T00:36:28.092Z,18.29
2018-05-06T00:39:31.420Z,18.30
2018-05-06T00:42:35.752Z,18.27
2018-05-06T00:45:39.160Z,18.21
2018-05-06T00:48:42.460Z,18.20
2018-05-06T00:51:45.881Z,18.21
2018-05-06T00:54:49.285Z,18.22
2018-05-06T00:57:53.136Z,18.23
2018-05-06T01:00:56.486Z,18.22
2018-05-06T01:03:59.834Z,18.19
2018-05-06T01:07:03.310Z,18.08
2018-05-06T01:10:06.606Z,18.05
2018-05-06T01:13:09.979Z,18.03
2018-05-06T01:16:13.375Z,18.05
2018-05-06T01:19:16.660Z,17.97
2018-05-06T01:22:25.729Z,17.88
2018-05-06T01:25:29.632Z,17.86
2018-05-06T01:28:33.032Z,17.75
2018-05-06T01:31:36.393Z,17.73
2018-05-06T01:34:44.950Z,17.69
2018-05-06T01:37:48.296Z,17.61
2018-05-06T01:40:51.867Z,17.59
2018-05-06T01:43:55.947Z,17.53
2018-05-06T01:46:59.359Z,17.59
2018-05-06T01:50:02.836Z,17.60
2018-05-06T01:53:06.155Z,17.60
2018-05-06T01:56:09.551Z,17.61
2018-05-06T01:59:12.855Z,17.56
2018-05-06T02:02:16.239Z,17.57
2018-05-06T02:05:26.318Z,17.57
2018-05-06T02:08:29.568Z,17.55
2018-05-06T02:11:32.965Z,17.48
2018-05-06T02:14:36.316Z,17.48
2018-05-06T02:17:39.567Z,17.43
2018-05-06T02:20:42.895Z,17.38
2018-05-06T02:23:46.315Z,17.40
2018-05-06T02:26:49.539Z,17.38
2018-05-06T02:29:52.887Z,17.34
2018-05-06T02:32:56.714Z,17.37
2018-05-06T02:36:00.110Z,17.33
2018-05-06T02:39:03.465Z,17.35
2018-05-06T02:42:06.794Z,17.34
2018-05-06T02:45:11.117Z,17.31
2018-05-06T02:48:14.549Z,17.24
2018-05-06T02:51:17.940Z,17.23
2018-05-06T02:54:21.352Z,17.21
2018-05-06T02:57:25.555Z,17.21
2018-05-06T03:00:28.955Z,17.17
2018-05-06T03:03:32.319Z,17.17
2018-05-06T03:06:35.583Z,17.12
2018-05-06T03:09:38.969Z,17.10
2018-05-06T03:12:42.362Z,17.13
2018-05-06T03:15:45.641Z,17.10
2018-05-06T03:18:49.039Z,17.00
2018-05-06T03:21:52.259Z,16.93
2018-05-06T03:24:56.519Z,16.84
2018-05-06T03:27:59.855Z,16.80
2018-05-06T03:31:03.165Z,16.81
2018-05-06T03:34:06.459Z,16.79
2018-05-06T03:37:09.906Z,16.64
2018-05-06T03:40:13.283Z,16.66
2018-05-06T03:43:16.680Z,16.66
2018-05-06T03:46:20.056Z,16.66
2018-05-06T03:49:24.125Z,16.67
2018-05-06T03:52:28.326Z,16.68
2018-05-06T03:55:31.687Z,16.69
2018-05-06T04:00:44.564Z,16.67
2018-05-06T04:03:47.907Z,16.65
2018-05-06T04:06:51.250Z,16.62
2018-05-06T04:09:55.092Z,16.64
2018-05-06T04:12:58.491Z,16.58
2018-05-06T04:16:01.811Z,16.53
2018-05-06T04:19:05.398Z,16.53
2018-05-06T04:22:08.683Z,16.54
2018-05-06T04:25:12.035Z,16.52
2018-05-06T04:28:15.631Z,16.49
2018-05-06T04:31:18.827Z,16.49
2018-05-06T04:34:22.135Z,16.43
2018-05-06T04:37:27.488Z,16.36
2018-05-06T04:40:30.855Z,16.36
2018-05-06T04:43:35.143Z,16.40
2018-05-06T04:46:38.490Z,16.41
2018-05-06T04:49:41.748Z,16.43
2018-05-06T04:52:45.127Z,16.45
2018-05-06T04:55:49.499Z,16.44
2018-05-06T04:58:52.863Z,16.40
2018-05-06T05:01:57.040Z,16.44
2018-05-06T05:05:00.342Z,16.41
2018-05-06T05:08:03.783Z,16.43
2018-05-06T05:11:07.170Z,16.53
2018-05-06T05:14:10.423Z,16.54
2018-05-06T05:17:13.933Z,16.62
2018-05-06T05:20:17.116Z,16.71
2018-05-06T05:23:20.424Z,16.51
2018-05-06T05:26:25.745Z,16.41
2018-05-06T05:29:29.011Z,16.44
2018-05-06T05:32:32.475Z,16.58
2018-05-06T05:35:35.910Z,16.65
2018-05-06T05:38:39.259Z,16.74
2018-05-06T05:41:42.511Z,16.63
2018-05-06T05:44:45.859Z,16.69
2018-05-06T05:47:49.344Z,16.83
2018-05-06T05:50:52.686Z,16.96
2018-05-06T05:53:57.330Z,17.06
2018-05-06T05:57:00.843Z,17.13
2018-05-06T06:00:04.107Z,17.18
2018-05-06T06:03:07.521Z,17.05
2018-05-06T06:06:10.745Z,17.04
2018-05-06T06:09:14.079Z,17.20
2018-05-06T06:12:17.399Z,17.23
2018-05-06T06:15:20.675Z,17.16
2018-05-06T06:18:24.018Z,17.26
2018-05-06T06:21:28.120Z,17.30
2018-05-06T06:24:31.524Z,17.21
2018-05-06T06:27:34.911Z,17.22
2018-05-06T06:30:38.270Z,17.37
2018-05-06T06:33:41.463Z,17.43
2018-05-06T06:36:44.767Z,17.51
2018-05-06T06:39:48.298Z,17.54
2018-05-06T06:42:51.609Z,17.56
2018-05-06T06:45:54.944Z,17.79
2018-05-06T06:48:58.240Z,17.93
2018-05-06T06:52:01.573Z,18.02
2018-05-06T06:55:05.350Z,18.18
2018-05-06T06:58:08.692Z,18.13
2018-05-06T07:01:12.029Z,18.18
2018-05-06T07:04:15.436Z,18.21
2018-05-06T07:07:18.780Z,18.28
2018-05-06T07:10:22.005Z,18.42
2018-05-06T07:13:25.306Z,18.60
2018-05-06T07:16:28.672Z,18.64
2018-05-06T07:19:32.555Z,18.55
2018-05-06T07:22:35.911Z,18.66
2018-05-06T07:25:39.304Z,18.83
2018-05-06T07:28:42.644Z,19.01
2018-05-06T07:31:53.732Z,19.12
2018-05-06T07:34:57.098Z,19.11
2018-05-06T07:38:00.513Z,19.18
2018-05-06T07:41:04.212Z,19.26
2018-05-06T07:44:07.548Z,19.36
2018-05-06T07:47:10.919Z,19.29
2018-05-06T07:50:14.236Z,19.35
2018-05-06T07:53:17.601Z,19.53
2018-05-06T07:56:20.930Z,19.74
2018-05-06T07:59:24.255Z,19.88
2018-05-06T08:02:27.620Z,19.76
2018-05-06T08:05:30.999Z,19.55
2018-05-06T08:08:35.504Z,19.52
2018-05-06T08:11:38.797Z,19.79
2018-05-06T08:14:42.152Z,19.98
2018-05-06T08:17:45.438Z,19.69
2018-05-06T08:20:48.772Z,19.62
2018-05-06T08:23:52.190Z,19.83
2018-05-06T08:26:55.540Z,20.14
2018-05-06T08:29:58.904Z,20.30
2018-05-06T08:33:02.957Z,20.57
2018-05-06T08:36:06.302Z,20.66
2018-05-06T08:39:10.450Z,20.89
2018-05-06T08:42:14.404Z,20.88
2018-05-06T08:45:18.059Z,21.07
2018-05-06T08:48:21.359Z,21.15
2018-05-06T08:51:24.767Z,21.19
2018-05-06T08:54:28.049Z,21.06
2018-05-06T08:57:31.402Z,21.02
2018-05-06T09:00:35.773Z,21.42
2018-05-06T09:03:39.170Z,21.58
2018-05-06T09:06:42.684Z,21.66
2018-05-06T09:09:46.043Z,21.83
2018-05-06T09:12:49.835Z,21.86
2018-05-06T09:15:53.135Z,21.96
2018-05-06T09:18:56.388Z,21.94
2018-05-06T09:21:59.591Z,22.06
2018-05-06T09:25:02.953Z,22.44
2018-05-06T09:28:06.257Z,22.57
2018-05-06T09:31:09.644Z,22.20
2018-05-06T09:34:12.938Z,22.36
2018-05-06T09:37:17.080Z,22.20
2018-05-06T09:40:20.467Z,21.81
2018-05-06T09:43:24.786Z,22.03
2018-05-06T09:46:28.140Z,22.44
2018-05-06T09:49:31.507Z,22.31
2018-05-06T09:52:34.872Z,22.30
2018-05-06T09:55:38.313Z,22.67
2018-05-06T09:58:41.695Z,23.01
2018-05-06T10:01:46.131Z,23.24
2018-05-06T10:04:49.469Z,23.62
2018-05-06T10:07:53.837Z,23.74
2018-05-06T10:10:57.197Z,23.42
2018-05-06T10:14:01.550Z,23.29
2018-05-06T10:17:04.939Z,23.34
2018-05-06T10:20:09.340Z,23.69
2018-05-06T10:23:12.520Z,23.83
2018-05-06T10:26:15.920Z,23.99
2018-05-06T10:29:19.390Z,24.26
2018-05-06T10:32:22.931Z,24.40
2018-05-06T10:35:26.836Z,24.25
2018-05-06T10:38:30.186Z,24.40
2018-05-06T10:41:33.534Z,24.35
2018-05-06T10:44:37.011Z,24.49
2018-05-06T10:47:40.409Z,24.57
2018-05-06T10:50:44.816Z,24.75
2018-05-06T10:53:48.059Z,24.85
2018-05-06T10:56:52.458Z,24.83
2018-05-06T10:59:56.923Z,24.60
2018-05-06T11:03:00.269Z,24.68
2018-05-06T11:06:03.701Z,24.80
2018-05-06T11:09:07.059Z,25.09
2018-05-06T11:12:11.392Z,25.25
2018-05-06T11:15:14.711Z,25.38
2018-05-06T11:18:18.959Z,25.53
2018-05-06T11:21:22.411Z,25.65
2018-05-06T11:24:26.474Z,25.64
2018-05-06T11:27:29.869Z,25.53
2018-05-06T11:30:33.146Z,25.64
2018-05-06T11:33:36.453Z,25.51
2018-05-06T11:36:39.858Z,25.63
2018-05-06T11:39:43.175Z,25.62
2018-05-06T11:42:46.572Z,25.70
2018-05-06T11:45:49.835Z,25.76
2018-05-06T11:48:53.271Z,25.78
2018-05-06T11:51:57.432Z,25.85
2018-05-06T11:55:00.818Z,25.87
2018-05-06T11:58:04.144Z,26.03
2018-05-06T12:01:07.540Z,25.89
2018-05-06T12:04:10.943Z,25.91
2018-05-06T12:07:14.388Z,25.80
2018-05-06T12:10:17.750Z,25.92
2018-05-06T12:13:21.125Z,25.97
2018-05-06T12:16:24.423Z,26.07
2018-05-06T12:19:29.236Z,26.07
2018-05-06T12:22:32.461Z,26.18
2018-05-06T12:25:35.807Z,26.31
2018-05-06T12:28:39.251Z,26.29
2018-05-06T12:31:42.681Z,26.38
2018-05-06T12:34:46.054Z,26.54
2018-05-06T12:37:49.498Z,26.43
2018-05-06T12:40:52.836Z,26.50
2018-05-06T12:43:56.611Z,26.56
2018-05-06T12:46:59.939Z,26.59
2018-05-06T12:50:04.353Z,26.56
2018-05-06T12:53:08.631Z,26.71
2018-05-06T12:56:12.040Z,26.79
2018-05-06T12:59:15.351Z,26.75
2018-05-06T13:02:18.700Z,26.96
2018-05-06T13:05:22.012Z,27.01
2018-05-06T13:08:25.400Z,27.11
2018-05-06T13:11:29.909Z,27.00
2018-05-06T13:14:33.228Z,26.97
2018-05-06T13:17:36.565Z,27.02
2018-05-06T13:20:39.855Z,27.06
2018-05-06T13:23:43.138Z,27.02
2018-05-06T13:26:46.522Z,27.10
2018-05-06T13:29:49.717Z,27.30
2018-05-06T13:32:52.965Z,27.31
2018-05-06T13:35:57.312Z,27.56
2018-05-06T13:39:00.743Z,27.60
2018-05-06T13:42:07.463Z,27.62
2018-05-06T13:45:11.714Z,27.58
2018-05-06T13:48:16.183Z,27.68
2018-05-06T13:51:19.527Z,27.76
2018-05-06T13:54:22.801Z,27.77
2018-05-06T13:57:26.103Z,27.80
2018-05-06T14:00:30.443Z,27.56
2018-05-06T14:03:33.779Z,27.67
2018-05-06T14:06:37.228Z,27.75
2018-05-06T14:09:40.574Z,27.97
2018-05-06T14:12:44.531Z,27.80
2018-05-06T14:15:47.919Z,27.81
2018-05-06T14:18:51.316Z,27.83
2018-05-06T14:21:54.807Z,28.04
2018-05-06T14:25:03.943Z,28.07
2018-05-06T14:28:07.351Z,28.03
2018-05-06T14:31:10.747Z,28.11
2018-05-06T14:34:14.577Z,28.16
2018-05-06T14:37:17.909Z,27.95
2018-05-06T14:40:21.228Z,28.18
2018-05-06T14:43:24.813Z,28.21
2018-05-06T14:46:37.097Z,28.31
2018-05-06T14:49:40.414Z,28.39
2018-05-06T14:52:43.919Z,28.52
2018-05-06T14:55:48.452Z,28.67
2018-05-06T14:58:51.714Z,28.28
2018-05-06T15:01:55.031Z,27.92
2018-05-06T15:04:58.330Z,27.81
2018-05-06T15:08:01.627Z,27.80
2018-05-06T15:11:05.155Z,27.97
2018-05-06T15:14:08.455Z,28.17
2018-05-06T15:17:11.854Z,28.34
2018-05-06T15:20:15.671Z,28.38
2018-05-06T15:23:19.040Z,28.45
2018-05-06T15:26:22.343Z,28.62
2018-05-06T15:29:25.664Z,28.53
2018-05-06T15:32:29.052Z,28.13
2018-05-06T15:35:32.404Z,27.95
2018-05-06T15:38:35.716Z,28.14
2018-05-06T15:41:38.982Z,28.09
2018-05-06T15:44:42.317Z,27.97
2018-05-06T15:47:47.455Z,28.20
2018-05-06T15:50:51.911Z,28.27
2018-05-06T15:53:55.289Z,28.04
2018-05-06T15:56:58.635Z,28.03
2018-05-06T16:00:02.052Z,28.11
2018-05-06T16:04:17.468Z,27.95
2018-05-06T16:07:20.775Z,28.04
2018-05-06T16:10:23.979Z,27.98
2018-05-06T16:13:27.992Z,27.84
2018-05-06T16:16:31.412Z,27.97
2018-05-06T16:19:34.690Z,27.97
2018-05-06T16:22:38.084Z,27.95
2018-05-06T16:25:41.415Z,27.95
2018-05-06T16:28:44.798Z,27.91
2018-05-06T16:31:48.461Z,27.89
2018-05-06T16:34:51.808Z,27.94
2018-05-06T16:37:55.211Z,27.60
2018-05-06T16:40:58.506Z,27.43
2018-05-06T16:44:15.681Z,27.27
2018-05-06T16:47:19.430Z,27.07
2018-05-06T16:50:22.716Z,27.00
2018-05-06T16:53:26.133Z,27.06
2018-05-06T16:56:29.374Z,26.97
2018-05-06T16:59:32.678Z,26.77
2018-05-06T17:02:36.011Z,26.69
2018-05-06T17:05:39.215Z,26.55
2018-05-06T17:08:42.616Z,26.49
2018-05-06T17:11:45.943Z,26.33
2018-05-06T17:14:49.251Z,26.31
2018-05-06T17:17:52.442Z,26.10
2018-05-06T17:20:55.766Z,25.96
2018-05-06T17:23:59.050Z,25.74
2018-05-06T17:27:03.583Z,25.63
2018-05-06T17:30:06.963Z,25.66
2018-05-06T17:33:10.357Z,25.65
2018-05-06T17:36:13.776Z,25.67
2018-05-06T17:39:17.289Z,25.56
2018-05-06T17:42:20.608Z,25.51
2018-05-06T17:45:24.901Z,25.47
2018-05-06T17:48:28.231Z,25.54
2018-05-06T17:51:32.524Z,25.52
2018-05-06T17:54:35.922Z,25.39
2018-05-06T17:57:39.223Z,25.29
2018-05-06T18:00:42.551Z,25.26
2018-05-06T18:03:45.858Z,25.12
2018-05-06T18:06:49.230Z,24.95
2018-05-06T18:09:52.486Z,24.88
2018-05-06T18:12:55.847Z,24.81
2018-05-06T18:15:59.151Z,24.62
2018-05-06T18:19:02.903Z,24.41
2018-05-06T18:22:06.279Z,24.34
2018-05-06T18:25:09.647Z,24.29
2018-05-06T18:28:13.833Z,24.17
2018-05-06T18:31:17.136Z,24.14
2018-05-06T18:34:20.527Z,24.06
2018-05-06T18:37:24.064Z,24.04
2018-05-06T18:40:27.337Z,23.93
2018-05-06T18:43:31.759Z,23.81
2018-05-06T18:46:35.106Z,23.78
2018-05-06T18:49:38.287Z,23.70
2018-05-06T18:52:41.584Z,23.57
2018-05-06T18:55:45.766Z,23.50
2018-05-06T18:58:49.088Z,23.39
2018-05-06T19:01:52.464Z,23.27
2018-05-06T19:04:55.811Z,23.16
2018-05-06T19:07:59.091Z,22.98
2018-05-06T19:11:02.456Z,22.85
2018-05-06T19:14:05.819Z,22.76
2018-05-06T19:17:09.235Z,22.62
2018-05-06T19:20:13.095Z,22.48
2018-05-06T19:23:16.476Z,22.44
2018-05-06T19:26:19.663Z,22.41
2018-05-06T19:29:23.046Z,22.37
2018-05-06T19:32:26.303Z,22.31
2018-05-06T19:35:30.389Z,22.27
2018-05-06T19:38:33.743Z,22.21
2018-05-06T19:41:37.001Z,22.12
2018-05-06T19:44:40.330Z,21.98
2018-05-06T19:47:43.613Z,21.82
2018-05-06T19:50:47.922Z,21.70
2018-05-06T19:53:51.228Z,21.60
2018-05-06T19:56:54.628Z,21.50
2018-05-06T19:59:58.048Z,21.45
2018-05-06T20:03:01.915Z,21.43
2018-05-06T20:06:05.189Z,21.42
2018-05-06T20:09:08.512Z,21.42
2018-05-06T20:12:11.936Z,21.44
2018-05-06T20:15:15.276Z,21.39
2018-05-06T20:18:18.466Z,21.40
2018-05-06T20:21:21.837Z,21.39
2018-05-06T20:24:25.230Z,21.36
2018-05-06T20:27:29.997Z,21.35
2018-05-06T20:30:33.355Z,21.27
2018-05-06T20:33:37.667Z,21.22
2018-05-06T20:36:41.059Z,21.19
2018-05-06T20:39:44.407Z,21.17
2018-05-06T20:42:47.667Z,21.14
2018-05-06T20:45:51.162Z,21.14
2018-05-06T20:48:55.676Z,21.08
2018-05-06T20:51:59.999Z,21.06
2018-05-06T20:55:03.284Z,21.07
2018-05-06T20:58:06.556Z,21.13
2018-05-06T21:01:09.928Z,21.04
2018-05-06T21:04:13.280Z,20.97
2018-05-06T21:07:16.657Z,20.94
2018-05-06T21:10:20.245Z,20.97
2018-05-06T21:13:23.478Z,20.91
2018-05-06T21:16:32.608Z,20.88
2018-05-06T21:19:35.945Z,20.87
2018-05-06T21:22:39.207Z,20.86
2018-05-06T21:25:42.535Z,20.87
2018-05-06T21:28:45.725Z,20.81
2018-05-06T21:31:49.030Z,20.70
2018-05-06T21:34:52.322Z,20.67
2018-05-06T21:37:55.728Z,20.65
2018-05-06T21:40:59.042Z,20.61
2018-05-06T21:44:03.369Z,20.52
2018-05-06T21:47:06.709Z,20.45
2018-05-06T21:50:11.091Z,20.36
2018-05-06T21:53:14.464Z,20.32
2018-05-06T21:56:17.684Z,20.29
2018-05-06T21:59:20.960Z,20.24
2018-05-06T22:02:24.306Z,20.18
2018-05-06T22:05:27.655Z,20.15
2018-05-06T22:08:31.404Z,20.10
2018-05-06T22:11:34.775Z,20.03
2018-05-06T22:14:38.172Z,19.99
2018-05-06T22:17:42.524Z,19.98
2018-05-06T22:20:45.725Z,19.91
2018-05-06T22:23:49.087Z,19.84
2018-05-06T22:26:52.391Z,19.90
2018-05-06T22:29:55.665Z,19.74
2018-05-06T22:32:59.072Z,19.67
2018-05-06T22:36:03.192Z,19.63
2018-05-06T22:39:06.511Z,19.59
2018-05-06T22:42:09.821Z,19.55
2018-05-06T22:45:13.143Z,19.48
2018-05-06T22:48:16.524Z,19.41
2018-05-06T22:51:19.878Z,19.34
2018-05-06T22:54:23.182Z,19.31
2018-05-06T22:57:26.526Z,19.25
2018-05-06T23:00:30.556Z,19.26
2018-05-06T23:03:34.115Z,19.23
2018-05-06T23:06:37.485Z,19.24
2018-05-06T23:09:40.833Z,19.24
2018-05-06T23:12:44.075Z,19.16
2018-05-06T23:15:50.458Z,19.14
2018-05-06T23:18:53.901Z,19.13
2018-05-06T23:21:57.172Z,19.04
2018-05-06T23:25:01.571Z,19.03
2018-05-06T23:28:04.895Z,18.98
2018-05-06T23:31:08.194Z,19.01
2018-05-06T23:34:11.617Z,18.99
2018-05-06T23:37:15.000Z,18.99
2018-05-06T23:40:18.295Z,18.91
2018-05-06T23:43:21.985Z,18.88
2018-05-06T23:46:25.348Z,18.89
2018-05-06T23:49:28.796Z,18.85
2018-05-06T23:52:33.048Z,18.85
2018-05-06T23:55:36.436Z,18.83
2018-05-06T23:58:39.847Z,18.79
